createdAt,value
2023-10-23T00:01:24.822Z,101134.78
2023-10-23T00:03:52.893Z,101140.91
2023-10-23T00:06:20.931Z,101139.16
2023-10-23T00:08:48.873Z,101146.53
2023-10-23T00:11:25.186Z,101142.06
2023-10-23T00:13:53.165Z,101145.19
2023-10-23T00:16:21.570Z,101149.91
2023-10-23T00:18:50.443Z,101150.34
2023-10-23T00:21:18.686Z,101158.34
2023-10-23T00:23:46.578Z,101156.53
2023-10-23T00:26:14.556Z,101148.88
2023-10-23T00:28:44.031Z,101158.28
2023-10-23T00:31:11.941Z,101153.91
2023-10-23T00:33:40.061Z,101158.88
2023-10-23T00:36:08.221Z,101152.16
2023-10-23T00:38:36.170Z,101159.31
2023-10-23T00:41:04.170Z,101158.72
2023-10-23T00:43:32.205Z,101157.00
2023-10-23T00:46:02.777Z,101163.25
2023-10-23T00:48:30.876Z,101148.22
2023-10-23T00:51:00.572Z,101164.13
2023-10-23T00:53:31.779Z,101152.44
2023-10-23T00:56:00.887Z,101159.41
2023-10-23T00:58:29.389Z,101157.84
2023-10-23T01:00:59.683Z,101150.88
2023-10-23T01:03:29.072Z,101154.34
2023-10-23T01:05:57.149Z,101156.81
2023-10-23T01:08:25.227Z,101155.16
2023-10-23T01:10:53.461Z,101162.06
2023-10-23T01:13:21.447Z,101147.00
2023-10-23T01:15:49.830Z,101159.16
2023-10-23T01:18:17.774Z,101158.19
2023-10-23T01:20:47.467Z,101157.59
2023-10-23T01:23:15.520Z,101159.75
2023-10-23T01:25:44.855Z,101163.16
2023-10-23T01:28:12.884Z,101177.28
2023-10-23T01:30:41.859Z,101182.63
2023-10-23T01:33:09.992Z,101171.53
2023-10-23T01:35:38.024Z,101175.91
2023-10-23T01:38:05.943Z,101170.34
2023-10-23T01:40:34.080Z,101157.34
2023-10-23T01:43:03.379Z,101171.94
2023-10-23T01:45:31.379Z,101180.03
2023-10-23T01:47:59.346Z,101172.81
2023-10-23T01:50:27.226Z,101185.56
2023-10-23T01:52:55.232Z,101184.88
2023-10-23T01:55:23.114Z,101183.00
2023-10-23T01:57:51.051Z,101186.66
2023-10-23T02:00:20.709Z,101183.31
2023-10-23T02:02:48.803Z,101175.91
2023-10-23T02:05:16.773Z,101178.81
2023-10-23T02:07:45.201Z,101183.38
2023-10-23T02:10:13.145Z,101180.78
2023-10-23T02:12:41.077Z,101187.00
2023-10-23T02:15:11.452Z,101183.78
2023-10-23T02:17:40.941Z,101191.88
2023-10-23T02:20:09.480Z,101193.75
2023-10-23T02:22:37.854Z,101195.09
2023-10-23T02:25:06.839Z,101194.22
2023-10-23T02:27:34.804Z,101195.56
2023-10-23T02:30:03.017Z,101207.25
2023-10-23T02:32:31.046Z,101212.69
2023-10-23T02:35:00.380Z,101212.00
2023-10-23T02:37:28.500Z,101217.47
2023-10-23T02:39:58.266Z,101215.50
2023-10-23T02:42:26.477Z,101215.56
2023-10-23T02:44:55.347Z,101218.94
2023-10-23T02:47:23.241Z,101216.19
2023-10-23T02:49:51.212Z,101225.53
2023-10-23T02:52:22.195Z,101214.78
2023-10-23T02:54:51.783Z,101221.91
2023-10-23T02:57:20.039Z,101224.53
2023-10-23T02:59:49.024Z,101224.75
2023-10-23T03:02:17.884Z,101217.94
2023-10-23T03:04:45.866Z,101225.03
2023-10-23T03:07:14.583Z,101222.09
2023-10-23T03:09:44.189Z,101229.47
2023-10-23T03:12:12.228Z,101227.03
2023-10-23T03:14:40.215Z,101230.41
2023-10-23T03:17:08.613Z,101239.53
2023-10-23T03:19:36.636Z,101232.63
2023-10-23T03:22:05.312Z,101243.38
2023-10-23T03:24:33.863Z,101235.59
2023-10-23T03:27:03.143Z,101242.97
2023-10-23T03:29:31.044Z,101245.66
2023-10-23T03:31:58.993Z,101244.59
2023-10-23T03:34:27.210Z,101240.72
2023-10-23T03:36:55.356Z,101246.66
2023-10-23T03:39:23.348Z,101247.75
2023-10-23T03:41:51.254Z,101245.16
2023-10-23T03:44:20.632Z,101251.50
2023-10-23T03:46:48.626Z,101241.97
2023-10-23T03:49:16.691Z,101249.97
2023-10-23T03:51:44.783Z,101251.03
2023-10-23T03:54:12.705Z,101248.53
2023-10-23T03:56:40.763Z,101257.22
2023-10-23T03:59:08.772Z,101257.22
2023-10-23T04:01:38.206Z,101254.88
2023-10-23T04:04:06.541Z,101259.41
2023-10-23T04:06:34.693Z,101260.28
2023-10-23T04:09:02.676Z,101259.41
2023-10-23T04:11:30.643Z,101259.50
2023-10-23T04:13:58.663Z,101261.28
2023-10-23T04:16:26.542Z,101261.38
2023-10-23T04:18:56.068Z,101259.72
2023-10-23T04:25:04.887Z,101273.66
2023-10-23T04:27:32.990Z,101272.03
2023-10-23T04:30:01.837Z,101269.22
2023-10-23T04:32:30.078Z,101264.94
2023-10-23T04:34:59.437Z,101268.44
2023-10-23T04:37:27.649Z,101276.34
2023-10-23T04:39:55.660Z,101271.88
2023-10-23T04:42:23.708Z,101267.25
2023-10-23T04:44:51.613Z,101271.16
2023-10-23T04:47:19.466Z,101273.91
2023-10-23T04:49:48.751Z,101266.94
2023-10-23T04:52:18.160Z,101267.28
2023-10-23T04:54:46.809Z,101263.72
2023-10-23T04:57:14.795Z,101269.03
2023-10-23T04:59:42.856Z,101268.47
2023-10-23T05:02:10.799Z,101262.44
2023-10-23T05:04:38.896Z,101267.91
2023-10-23T05:07:07.002Z,101271.44
2023-10-23T05:09:36.512Z,101277.59
2023-10-23T05:12:06.199Z,101278.56
2023-10-23T05:14:34.535Z,101278.38
2023-10-23T05:17:02.484Z,101276.53
2023-10-23T05:19:30.432Z,101286.38
2023-10-23T05:21:58.347Z,101286.44
2023-10-23T05:24:27.949Z,101295.03
2023-10-23T05:26:57.560Z,101295.75
2023-10-23T05:29:25.435Z,101297.97
2023-10-23T05:31:53.327Z,101300.13
2023-10-23T05:34:21.254Z,101302.88
2023-10-23T05:36:49.270Z,101297.38
2023-10-23T05:39:17.679Z,101307.03
2023-10-23T05:41:45.596Z,101302.59
2023-10-23T05:44:14.902Z,101310.47
2023-10-23T05:46:42.845Z,101308.97
2023-10-23T05:49:10.874Z,101307.03
2023-10-23T05:51:38.788Z,101306.38
2023-10-23T05:54:07.087Z,101311.78
2023-10-23T05:56:35.279Z,101314.44
2023-10-23T05:59:03.298Z,101314.38
2023-10-23T06:01:32.622Z,101312.69
2023-10-23T06:04:00.636Z,101324.22
2023-10-23T06:06:28.642Z,101335.56
2023-10-23T06:08:56.560Z,101334.06
2023-10-23T06:11:25.530Z,101333.97
2023-10-23T06:13:53.418Z,101339.22
2023-10-23T06:16:21.311Z,101346.28
2023-10-23T06:18:50.724Z,101348.94
2023-10-23T06:21:19.698Z,101346.56
2023-10-23T06:23:48.632Z,101348.56
2023-10-23T06:26:16.574Z,101352.69
2023-10-23T06:28:44.504Z,101351.72
2023-10-23T06:31:13.249Z,101355.41
2023-10-23T06:33:43.842Z,101354.47
2023-10-23T06:36:13.391Z,101358.78
2023-10-23T06:38:41.592Z,101360.47
2023-10-23T06:41:10.057Z,101358.22
2023-10-23T06:43:38.492Z,101366.16
2023-10-23T06:46:07.345Z,101360.88
2023-10-23T06:48:35.852Z,101371.59
2023-10-23T06:51:04.945Z,101369.72
2023-10-23T06:53:35.900Z,101371.88
2023-10-23T06:56:04.058Z,101380.03
2023-10-23T06:58:31.987Z,101379.06
2023-10-23T07:01:07.516Z,101380.47
2023-10-23T07:03:35.705Z,101377.88
2023-10-23T07:06:06.650Z,101377.88
2023-10-23T07:08:38.531Z,101374.06
2023-10-23T07:11:13.761Z,101384.75
2023-10-23T07:13:41.769Z,101376.94
2023-10-23T07:16:10.308Z,101379.59
2023-10-23T07:18:38.336Z,101378.88
2023-10-23T07:21:06.320Z,101387.41
2023-10-23T07:23:36.020Z,101385.44
2023-10-23T07:26:08.911Z,101391.69
2023-10-23T07:28:37.476Z,101395.13
2023-10-23T07:31:05.477Z,101391.13
2023-10-23T07:33:34.024Z,101396.13
2023-10-23T07:36:03.801Z,101395.22
2023-10-23T07:38:31.812Z,101399.75
2023-10-23T07:41:01.699Z,101406.38
2023-10-23T07:43:30.600Z,101412.91
2023-10-23T07:48:30.412Z,101413.97
2023-10-23T07:51:00.447Z,101408.06
2023-10-23T07:53:28.882Z,101424.78
2023-10-23T07:55:56.929Z,101426.28
2023-10-23T07:58:26.258Z,101420.50
2023-10-23T08:01:06.077Z,101424.66
2023-10-23T08:03:35.585Z,101423.47
2023-10-23T08:06:05.010Z,101425.84
2023-10-23T08:08:35.286Z,101425.59
2023-10-23T08:11:05.536Z,101423.97
2023-10-23T08:13:36.105Z,101416.44
2023-10-23T08:16:05.540Z,101421.16
2023-10-23T08:18:39.781Z,101421.53
2023-10-23T08:21:12.747Z,101422.78
2023-10-23T08:23:41.172Z,101426.31
2023-10-23T08:26:09.416Z,101430.41
2023-10-23T08:31:20.378Z,101433.84
2023-10-23T08:33:53.369Z,101435.56
2023-10-23T08:36:21.322Z,101429.59
2023-10-23T08:38:49.211Z,101430.47
2023-10-23T08:41:17.124Z,101425.75
2023-10-23T08:43:46.656Z,101422.41
2023-10-23T08:46:15.439Z,101432.84
2023-10-23T08:48:43.592Z,101426.16
2023-10-23T08:51:11.633Z,101427.63
2023-10-23T08:54:06.885Z,101429.31
2023-10-23T08:56:39.911Z,101423.97
2023-10-23T08:59:11.397Z,101421.50
2023-10-23T09:01:39.977Z,101428.59
2023-10-23T09:04:11.423Z,101431.09
2023-10-23T09:06:40.370Z,101433.50
2023-10-23T09:09:08.603Z,101432.38
2023-10-23T09:11:40.795Z,101433.66
2023-10-23T09:14:10.230Z,101434.28
2023-10-23T09:16:38.486Z,101428.06
2023-10-23T09:19:06.667Z,101422.94
2023-10-23T09:21:35.891Z,101428.44
2023-10-23T09:24:05.659Z,101428.72
2023-10-23T09:26:33.735Z,101428.81
2023-10-23T09:29:01.699Z,101437.78
2023-10-23T09:31:31.287Z,101438.19
2023-10-23T09:33:59.449Z,101425.97
2023-10-23T09:36:28.451Z,101429.25
2023-10-23T09:39:01.064Z,101423.81
2023-10-23T09:41:30.876Z,101420.56
2023-10-23T09:44:01.973Z,101417.91
2023-10-23T09:46:34.225Z,101416.00
2023-10-23T09:49:05.029Z,101414.78
2023-10-23T09:51:39.966Z,101425.22
2023-10-23T09:54:16.782Z,101424.28
2023-10-23T09:56:49.882Z,101422.88
2023-10-23T09:59:19.685Z,101431.31
2023-10-23T10:01:52.546Z,101430.69
2023-10-23T10:04:27.461Z,101429.28
2023-10-23T10:06:57.477Z,101433.72
2023-10-23T10:09:27.133Z,101438.78
2023-10-23T10:11:57.184Z,101437.41
2023-10-23T10:14:26.606Z,101426.81
2023-10-23T10:16:57.903Z,101432.00
2023-10-23T10:19:27.936Z,101437.19
2023-10-23T10:22:05.693Z,101437.44
2023-10-23T10:24:35.803Z,101435.50
2023-10-23T10:27:05.441Z,101431.06
2023-10-23T10:29:34.082Z,101429.13
2023-10-23T10:32:11.209Z,101431.63
2023-10-23T10:34:56.735Z,101426.38
2023-10-23T10:37:28.694Z,101421.69
2023-10-23T10:40:07.754Z,101417.88
2023-10-23T10:42:43.453Z,101424.94
2023-10-23T10:45:18.240Z,101420.25
2023-10-23T10:47:49.760Z,101414.41
2023-10-23T10:50:35.267Z,101419.38
2023-10-23T10:53:04.895Z,101406.69
2023-10-23T10:55:33.567Z,101405.13
2023-10-23T10:58:01.959Z,101406.44
2023-10-23T11:00:34.469Z,101399.94
2023-10-23T11:03:04.462Z,101404.63
2023-10-23T11:05:33.501Z,101404.59
2023-10-23T11:08:02.051Z,101405.16
2023-10-23T11:10:30.150Z,101392.22
2023-10-23T11:12:58.106Z,101394.47
2023-10-23T11:15:26.006Z,101391.53
2023-10-23T11:17:54.855Z,101392.75
2023-10-23T11:20:24.182Z,101392.25
2023-10-23T11:22:52.110Z,101399.44
2023-10-23T11:25:20.060Z,101388.94
2023-10-23T11:27:52.350Z,101388.84
2023-10-23T11:30:20.604Z,101385.00
2023-10-23T11:32:52.361Z,101387.06
2023-10-23T11:35:20.428Z,101386.28
2023-10-23T11:37:50.028Z,101386.50
2023-10-23T11:40:21.986Z,101393.84
2023-10-23T11:42:54.933Z,101386.66
2023-10-23T11:45:23.732Z,101393.38
2023-10-23T11:47:53.491Z,101397.38
2023-10-23T11:50:23.045Z,101387.69
2023-10-23T11:52:52.610Z,101398.53
2023-10-23T11:55:21.497Z,101390.75
2023-10-23T11:57:52.096Z,101390.63
2023-10-23T12:00:23.270Z,101394.06
2023-10-23T12:02:52.171Z,101392.31
2023-10-23T12:05:22.812Z,101394.19
2023-10-23T12:07:54.254Z,101389.75
2023-10-23T12:10:25.802Z,101390.94
2023-10-23T12:12:55.024Z,101395.78
2023-10-23T12:15:24.438Z,101389.78
2023-10-23T12:17:53.118Z,101390.41
2023-10-23T12:20:23.166Z,101389.75
2023-10-23T12:22:53.348Z,101373.88
2023-10-23T12:25:21.983Z,101381.06
2023-10-23T12:27:50.102Z,101380.88
2023-10-23T12:30:21.694Z,101375.19
2023-10-23T12:33:11.483Z,101376.69
2023-10-23T12:35:42.711Z,101380.53
2023-10-23T12:38:12.996Z,101376.47
2023-10-23T12:40:42.662Z,101376.38
2023-10-23T12:43:11.018Z,101376.47
2023-10-23T12:45:39.075Z,101367.91
2023-10-23T12:48:07.342Z,101369.88
2023-10-23T12:50:35.500Z,101367.25
2023-10-23T12:53:04.051Z,101360.59
2023-10-23T12:55:33.436Z,101366.94
2023-10-23T12:58:03.351Z,101368.97
2023-10-23T13:00:31.457Z,101371.88
2023-10-23T13:02:59.391Z,101363.47
2023-10-23T13:05:27.372Z,101353.56
2023-10-23T13:07:55.996Z,101359.81
2023-10-23T13:10:24.016Z,101362.28
2023-10-23T13:12:53.268Z,101357.78
2023-10-23T13:15:21.445Z,101361.38
2023-10-23T13:17:49.432Z,101350.84
2023-10-23T13:21:31.047Z,101358.50
2023-10-23T13:23:05.506Z,101357.03
2023-10-23T13:25:35.888Z,101345.22
2023-10-23T13:28:06.161Z,101348.91
2023-10-23T13:30:34.223Z,101342.97
2023-10-23T13:33:02.610Z,101342.84
2023-10-23T13:35:30.737Z,101346.13
2023-10-23T13:37:59.050Z,101343.44
2023-10-23T13:40:27.040Z,101340.84
2023-10-23T13:42:55.291Z,101338.28
2023-10-23T13:45:24.682Z,101336.69
2023-10-23T13:47:53.146Z,101328.72
2023-10-23T13:50:22.156Z,101323.81
2023-10-23T13:52:50.085Z,101325.03
2023-10-23T13:55:18.062Z,101327.44
2023-10-23T13:57:46.087Z,101316.50
2023-10-23T14:00:17.290Z,101326.75
2023-10-23T14:02:47.192Z,101322.16
2023-10-23T14:05:15.153Z,101317.63
2023-10-23T14:07:43.295Z,101315.38
2023-10-23T14:10:12.079Z,101321.00
2023-10-23T14:12:52.439Z,101319.72
2023-10-23T14:15:21.131Z,101316.50
2023-10-23T14:17:50.612Z,101315.13
2023-10-23T14:20:18.864Z,101317.16
2023-10-23T14:22:46.901Z,101306.88
2023-10-23T14:25:14.969Z,101308.19
2023-10-23T14:27:43.091Z,101307.50
2023-10-23T14:30:12.154Z,101308.63
2023-10-23T14:32:40.623Z,101310.56
2023-10-23T14:35:11.241Z,101301.97
2023-10-23T14:37:39.495Z,101317.31
2023-10-23T14:40:10.936Z,101311.38
2023-10-23T14:42:39.345Z,101304.41
2023-10-23T14:45:10.847Z,101316.22
2023-10-23T14:47:39.894Z,101316.44
2023-10-23T14:50:10.045Z,101309.34
2023-10-23T14:52:38.089Z,101312.91
2023-10-23T14:55:07.286Z,101307.00
2023-10-23T14:57:35.253Z,101293.88
2023-10-23T15:00:04.867Z,101295.06
2023-10-23T15:02:33.010Z,101293.59
2023-10-23T15:05:01.544Z,101289.28
2023-10-23T15:07:31.036Z,101288.75
2023-10-23T15:09:59.233Z,101277.78
2023-10-23T15:12:27.909Z,101283.78
2023-10-23T15:14:55.901Z,101281.41
2023-10-23T15:17:24.003Z,101279.06
2023-10-23T15:19:55.871Z,101278.44
2023-10-23T15:22:24.065Z,101284.97
2023-10-23T15:24:53.414Z,101278.97
2023-10-23T15:27:21.333Z,101274.88
2023-10-23T15:29:49.365Z,101275.16
2023-10-23T15:32:17.248Z,101273.56
2023-10-23T15:34:45.232Z,101273.00
2023-10-23T15:37:13.182Z,101274.22
2023-10-23T15:39:44.033Z,101270.13
2023-10-23T15:42:13.380Z,101260.84
2023-10-23T15:44:43.124Z,101259.44
2023-10-23T15:47:11.274Z,101261.69
2023-10-23T15:49:39.522Z,101258.34
2023-10-23T15:52:08.102Z,101260.56
2023-10-23T15:54:36.030Z,101257.31
2023-10-23T15:57:04.720Z,101260.50
2023-10-23T15:59:34.262Z,101263.59
2023-10-23T16:02:02.417Z,101256.81
2023-10-23T16:04:30.548Z,101258.94
2023-10-23T16:06:58.631Z,101258.50
2023-10-23T16:09:28.119Z,101258.88
2023-10-23T16:11:57.087Z,101262.63
2023-10-23T16:17:12.231Z,101255.41
2023-10-23T16:19:40.245Z,101244.97
2023-10-23T16:22:08.412Z,101244.41
2023-10-23T16:24:36.475Z,101240.97
2023-10-23T16:27:05.522Z,101244.78
2023-10-23T16:29:33.514Z,101249.28
2023-10-23T16:32:03.116Z,101247.69
2023-10-23T16:34:31.304Z,101239.00
2023-10-23T16:36:59.737Z,101241.84
2023-10-23T16:39:31.668Z,101241.94
2023-10-23T16:41:59.857Z,101216.25
2023-10-23T16:44:34.706Z,101237.84
2023-10-23T16:47:14.132Z,101238.03
2023-10-23T16:49:42.132Z,101229.63
2023-10-23T16:52:10.167Z,101236.03
2023-10-23T16:54:38.528Z,101234.59
2023-10-23T16:57:06.844Z,101232.88
2023-10-23T16:59:35.093Z,101218.84
2023-10-23T17:02:03.191Z,101234.78
2023-10-23T17:04:32.864Z,101234.91
2023-10-23T17:07:01.195Z,101221.75
2023-10-23T17:09:29.875Z,101227.31
2023-10-23T17:11:57.737Z,101232.88
2023-10-23T17:14:25.763Z,101228.34
2023-10-23T17:16:53.863Z,101229.31
2023-10-23T17:19:21.900Z,101225.00
2023-10-23T17:21:51.209Z,101234.09
2023-10-23T17:24:19.279Z,101223.69
2023-10-23T17:26:48.009Z,101231.69
2023-10-23T17:29:16.034Z,101229.78
2023-10-23T17:31:44.145Z,101219.09
2023-10-23T17:34:12.213Z,101219.97
2023-10-23T17:36:40.145Z,101221.97
2023-10-23T17:39:09.471Z,101223.13
2023-10-23T17:41:37.842Z,101216.03
2023-10-23T17:44:06.500Z,101217.09
2023-10-23T17:46:36.487Z,101219.16
2023-10-23T17:49:05.033Z,101219.25
2023-10-23T17:51:33.253Z,101219.38
2023-10-23T17:54:05.390Z,101215.56
2023-10-23T17:56:37.465Z,101215.63
2023-10-23T17:59:06.302Z,101230.22
2023-10-23T18:01:34.483Z,101228.63
2023-10-23T18:04:02.524Z,101219.63
2023-10-23T18:06:30.523Z,101225.94
2023-10-23T18:08:59.119Z,101223.44
2023-10-23T18:11:27.461Z,101220.09
2023-10-23T18:13:57.441Z,101230.00
2023-10-23T18:16:25.567Z,101236.41
2023-10-23T18:18:53.584Z,101240.97
2023-10-23T18:21:21.618Z,101235.91
2023-10-23T18:23:49.510Z,101236.00
2023-10-23T18:26:19.495Z,101240.31
2023-10-23T18:28:48.012Z,101237.81
2023-10-23T18:31:22.089Z,101235.13
2023-10-23T18:33:53.975Z,101236.53
2023-10-23T18:36:23.083Z,101241.00
2023-10-23T18:38:51.166Z,101237.75
2023-10-23T18:41:19.855Z,101232.78
2023-10-23T18:43:48.142Z,101231.84
2023-10-23T18:46:17.714Z,101232.19
2023-10-23T18:48:46.222Z,101232.53
2023-10-23T18:51:14.766Z,101225.16
2023-10-23T18:53:42.910Z,101231.31
2023-10-23T18:56:11.420Z,101215.66
2023-10-23T18:58:39.437Z,101217.47
2023-10-23T19:01:09.534Z,101222.13
2023-10-23T19:03:39.836Z,101227.81
2023-10-23T19:06:08.598Z,101226.81
2023-10-23T19:08:37.222Z,101223.19
2023-10-23T19:11:05.607Z,101212.59
2023-10-23T19:13:34.914Z,101212.94
2023-10-23T19:16:04.389Z,101206.56
2023-10-23T19:18:33.078Z,101202.19
2023-10-23T19:21:03.280Z,101199.34
2023-10-23T19:23:31.390Z,101198.47
2023-10-23T19:25:59.376Z,101193.41
2023-10-23T19:28:27.335Z,101181.00
2023-10-23T19:30:56.671Z,101178.66
2023-10-23T19:33:25.282Z,101178.66
2023-10-23T19:35:54.387Z,101162.47
2023-10-23T19:38:24.313Z,101168.34
2023-10-23T19:40:53.866Z,101154.56
2023-10-23T19:43:27.124Z,101154.56
2023-10-23T19:45:56.060Z,101157.41
2023-10-23T19:48:24.631Z,101155.63
2023-10-23T19:50:54.421Z,101149.06
2023-10-23T19:53:24.573Z,101151.44
2023-10-23T19:55:53.878Z,101151.44
2023-10-23T19:58:22.329Z,101150.97
2023-10-23T20:00:50.684Z,101150.00
2023-10-23T20:03:18.682Z,101148.19
2023-10-23T20:05:46.983Z,101147.31
2023-10-23T20:08:15.091Z,101149.91
2023-10-23T20:10:44.993Z,101151.88
2023-10-23T20:13:13.078Z,101143.19
2023-10-23T20:15:41.183Z,101145.00
2023-10-23T20:18:09.731Z,101131.94
2023-10-23T20:20:37.650Z,101123.88
2023-10-23T20:23:06.175Z,101125.25
2023-10-23T20:25:34.559Z,101113.78
2023-10-23T20:28:05.358Z,101112.25
2023-10-23T20:30:35.094Z,101108.97
2023-10-23T20:33:03.968Z,101113.69
2023-10-23T20:35:32.028Z,101125.00
2023-10-23T20:38:00.122Z,101126.53
2023-10-23T20:40:28.132Z,101125.50
2023-10-23T20:42:56.123Z,101126.50
2023-10-23T20:45:25.473Z,101117.16
2023-10-23T20:47:53.590Z,101117.16
2023-10-23T20:50:24.310Z,101124.03
2023-10-23T20:52:52.403Z,101110.66
2023-10-23T20:55:20.364Z,101116.19
2023-10-23T20:57:48.240Z,101102.53
2023-10-23T21:00:16.763Z,101099.28
2023-10-23T21:02:46.096Z,101097.22
2023-10-23T21:05:14.269Z,101099.81
2023-10-23T21:07:42.323Z,101092.94
2023-10-23T21:10:10.674Z,101096.00
2023-10-23T21:12:38.681Z,101093.06
2023-10-23T21:15:07.573Z,101096.19
2023-10-23T21:17:36.070Z,101067.28
2023-10-23T21:20:06.220Z,101096.53
2023-10-23T21:22:34.239Z,101092.75
2023-10-23T21:25:02.370Z,101103.44
2023-10-23T21:27:30.364Z,101093.94
2023-10-23T21:29:58.331Z,101086.28
2023-10-23T21:32:26.616Z,101090.41
2023-10-23T21:34:54.562Z,101093.41
2023-10-23T21:37:24.022Z,101093.31
2023-10-23T21:39:52.187Z,101092.06
2023-10-23T21:42:20.222Z,101089.22
2023-10-23T21:44:48.130Z,101095.31
2023-10-23T21:47:16.099Z,101079.72
2023-10-23T21:49:45.406Z,101095.75
2023-10-23T21:52:13.698Z,101086.44
2023-10-23T21:54:43.753Z,101093.41
2023-10-23T21:57:20.616Z,101077.31
2023-10-23T21:59:50.659Z,101076.19
2023-10-23T22:02:19.073Z,101079.97
2023-10-23T22:04:53.611Z,101085.06
2023-10-23T22:07:22.015Z,101079.41
2023-10-23T22:09:52.011Z,101068.44
2023-10-23T22:12:20.529Z,101069.72
2023-10-23T22:14:48.889Z,101072.75
2023-10-23T22:17:16.975Z,101070.75
2023-10-23T22:19:45.136Z,101068.03
2023-10-23T22:22:13.240Z,101049.59
2023-10-23T22:24:41.407Z,101033.72
2023-10-23T22:27:10.864Z,101017.44
2023-10-23T22:29:38.774Z,101009.13
2023-10-23T22:32:07.016Z,101016.88
2023-10-23T22:34:35.611Z,101005.44
2023-10-23T22:37:58.681Z,101014.00
2023-10-23T22:39:52.697Z,101024.47
2023-10-23T22:42:22.128Z,101023.34
2023-10-23T22:44:50.039Z,101020.47
2023-10-23T22:47:18.301Z,101016.56
2023-10-23T22:49:46.874Z,101019.53
2023-10-23T22:52:15.458Z,101010.47
2023-10-23T22:54:59.211Z,101010.22
2023-10-23T22:57:30.193Z,100993.97
2023-10-23T22:59:58.639Z,100992.66
2023-10-23T23:02:27.313Z,100982.91
2023-10-23T23:04:55.752Z,100986.34
2023-10-23T23:07:25.112Z,100984.34
2023-10-23T23:09:53.594Z,100980.06
2023-10-23T23:12:22.072Z,100972.81
2023-10-23T23:14:52.054Z,100975.28
2023-10-23T23:17:24.303Z,100962.13
2023-10-23T23:19:53.227Z,100960.50
2023-10-23T23:22:21.566Z,100962.91
2023-10-23T23:24:49.555Z,100954.03
2023-10-23T23:27:17.422Z,100952.31
2023-10-23T23:29:45.332Z,100948.28
2023-10-23T23:32:14.737Z,100951.44
2023-10-23T23:34:42.791Z,100942.28
2023-10-23T23:37:10.875Z,100933.25
2023-10-23T23:39:41.772Z,100918.28
2023-10-23T23:42:09.683Z,100914.56
2023-10-23T23:44:37.711Z,100911.56
2023-10-23T23:47:05.829Z,100902.44
2023-10-23T23:49:35.225Z,100901.00
2023-10-23T23:52:03.192Z,100899.31
2023-10-23T23:54:31.079Z,100885.56
2023-10-23T23:56:59.214Z,100884.72
2023-10-23T23:59:27.125Z,100882.44
